Time;durP1;ratioP1;P1;durP2;ratioP2;P2;SDS_P1;SDS_P2;PMS_P1;PMS_P2;Temp;Humidity;BMP_temperature;BMP_pressure;BME280_temperature;BME280_humidity;BME280_pressure;Samples;Min_cycle;Max_cycle;Signal;HPM_P1;HPM_P2
2021/03/15 00:00:54;;;;;;;8.15;5.45;;;;;;;7.16;85.25;96547.58;1634192;86;21212;-65
2021/03/15 00:03:24;;;;;;;11.75;6.67;;;;;;;7.11;86.16;96543.39;1634057;86;21173;-66
2021/03/15 00:05:53;;;;;;;8.30;5.30;;;;;;;7.04;86.84;96542.36;1633539;86;21205;-64
2021/03/15 00:08:22;;;;;;;7.45;6.08;;;;;;;6.99;87.40;96543.33;1634277;86;21189;-63
2021/03/15 00:10:50;;;;;;;10.60;6.22;;;;;;;6.98;87.40;96539.13;1634359;88;21549;-64
2021/03/15 00:13:19;;;;;;;9.48;6.25;;;;;;;7.06;86.79;96538.34;1634185;86;21192;-63
2021/03/15 00:15:50;;;;;;;26.80;15.23;;;;;;;7.14;86.23;96534.03;1634080;86;21620;-64
2021/03/15 00:18:18;;;;;;;15.30;9.90;;;;;;;7.25;85.95;96532.93;1634283;87;21565;-65
2021/03/15 00:20:47;;;;;;;20.48;14.00;;;;;;;7.26;85.45;96524.70;1634263;88;21184;-65
2021/03/15 00:23:15;;;;;;;23.73;12.98;;;;;;;7.28;85.32;96515.83;1634215;86;21613;-64
2021/03/15 00:25:43;;;;;;;17.65;11.00;;;;;;;7.23;85.45;96517.28;1634258;88;21196;-64
2021/03/15 00:28:11;;;;;;;17.65;11.38;;;;;;;7.18;85.48;96515.16;1634150;88;21667;-64
2021/03/15 00:30:40;;;;;;;20.17;11.00;;;;;;;7.12;86.08;96508.84;1634199;87;21565;-63
2021/03/15 00:33:08;;;;;;;16.62;10.60;;;;;;;6.97;87.49;96506.53;1630407;87;21203;-63
2021/03/15 00:35:36;;;;;;;22.52;9.45;;;;;;;6.99;87.26;96508.97;1629458;88;21609;-64
2021/03/15 00:38:04;;;;;;;12.00;7.58;;;;;;;7.01;86.60;96501.86;1629487;87;21604;-63
2021/03/15 00:40:33;;;;;;;15.03;8.88;;;;;;;7.06;86.27;96500.92;1629606;88;21216;-64
2021/03/15 00:43:01;;;;;;;10.55;6.58;;;;;;;7.07;85.75;96499.48;1629382;87;21676;-63
2021/03/15 00:45:29;;;;;;;11.60;6.58;;;;;;;7.12;85.35;96508.02;1629512;87;21609;-63
2021/03/15 00:47:58;;;;;;;8.33;6.00;;;;;;;7.12;85.23;96504.16;1629568;88;21193;-62
2021/03/15 00:50:32;;;;;;;8.30;4.92;;;;;;;7.08;85.32;96502.87;1629407;87;21163;-63
2021/03/15 00:53:01;;;;;;;11.55;6.42;;;;;;;7.05;85.29;96498.01;1629471;87;21148;-63
2021/03/15 00:55:29;;;;;;;11.63;5.67;;;;;;;7.05;85.16;96500.59;1629393;87;21181;-63
2021/03/15 00:57:57;;;;;;;11.45;6.97;;;;;;;7.03;85.18;96500.77;1629514;88;21254;-63
2021/03/15 01:00:31;;;;;;;13.80;6.85;;;;;;;6.98;85.56;96500.41;1629800;87;21168;-63
2021/03/15 01:03:13;;;;;;;12.13;6.87;;;;;;;6.94;86.02;96493.94;1607896;87;21656;-65
2021/03/15 01:05:48;;;;;;;10.48;5.83;;;;;;;6.90;86.04;96492.64;1629518;87;21601;-72
2021/03/15 01:08:19;;;;;;;10.45;6.30;;;;;;;6.87;86.30;96489.56;1627271;88;21180;-63
2021/03/15 01:10:49;;;;;;;13.62;6.50;;;;;;;6.85;86.09;96483.77;1629560;87;21642;-63
2021/03/15 01:13:17;;;;;;;9.38;6.08;;;;;;;6.85;85.85;96481.97;1629766;87;21183;-65
2021/03/15 01:15:47;;;;;;;13.05;6.05;;;;;;;6.87;85.60;96489.56;1629603;88;21219;-64
2021/03/15 01:18:15;;;;;;;9.80;6.25;;;;;;;6.89;85.33;96487.14;1629640;87;21205;-64
2021/03/15 01:20:44;;;;;;;13.58;6.72;;;;;;;6.90;85.14;96476.34;1629561;88;21282;-64
2021/03/15 01:23:12;;;;;;;13.18;7.08;;;;;;;6.91;85.01;96476.67;1629565;87;21196;-64
2021/03/15 01:25:42;;;;;;;9.55;5.75;;;;;;;6.92;84.87;96471.84;1629748;87;21232;-64
2021/03/15 01:28:14;;;;;;;13.70;6.70;;;;;;;6.91;85.04;96467.16;1629535;87;21172;-65
2021/03/15 01:30:44;;;;;;;9.10;6.33;;;;;;;6.86;85.84;96462.95;1629536;87;21189;-65
2021/03/15 01:33:14;;;;;;;8.35;5.70;;;;;;;6.85;85.43;96454.88;1632838;85;21200;-64
2021/03/15 01:38:45;;;;;;;11.45;6.17;;;;;;;6.86;84.87;96453.92;1657960;86;21265;-64
2021/03/15 01:41:13;;;;;;;11.33;6.87;;;;;;;6.85;85.02;96451.51;1714209;84;21561;-64
2021/03/15 01:43:42;;;;;;;10.20;6.22;;;;;;;6.81;85.48;96445.83;1714389;83;21601;-64
2021/03/15 01:46:10;;;;;;;12.47;6.40;;;;;;;6.80;85.93;96444.71;1714151;83;21180;-64
2021/03/15 01:48:38;;;;;;;11.12;5.92;;;;;;;6.76;86.09;96442.92;1714252;84;21172;-64
2021/03/15 01:51:07;;;;;;;9.80;5.60;;;;;;;6.75;86.22;96443.88;1714334;83;21225;-64
2021/03/15 01:53:35;;;;;;;6.35;5.65;;;;;;;6.74;86.42;96440.97;1714123;83;21192;-67
2021/03/15 01:58:45;;;;;;;11.73;4.50;;;;;;;6.72;86.68;96439.04;1728208;83;21121;-64
2021/03/15 02:01:14;;;;;;;9.05;4.53;;;;;;;6.73;87.79;96435.48;1729354;83;21173;-64
2021/03/15 02:03:42;;;;;;;6.55;3.75;;;;;;;6.73;88.52;96433.41;1729484;83;21594;-64
2021/03/15 02:06:10;;;;;;;8.38;5.30;;;;;;;6.75;87.74;96434.04;1729282;83;21134;-63
2021/03/15 02:08:38;;;;;;;10.35;4.62;;;;;;;6.78;87.96;96431.14;1729430;83;21150;-64
2021/03/15 02:11:21;;;;;;;6.33;4.20;;;;;;;6.81;88.24;96430.86;1729609;83;21209;-64
2021/03/15 02:14:30;;;;;;;10.72;5.35;;;;;;;6.83;88.08;96431.02;1729444;83;21583;-64
2021/03/15 02:17:25;;;;;;;8.05;4.92;;;;;;;6.87;88.10;96425.86;1729202;83;21114;-63
2021/03/15 02:21:05;;;;;;;8.78;4.90;;;;;;;6.90;88.04;96429.41;1648727;86;21312;-63
2021/03/15 02:24:13;;;;;;;7.00;4.08;;;;;;;6.92;87.82;96432.66;1607014;88;21201;-63
2021/03/15 02:27:14;;;;;;;5.10;3.70;;;;;;;6.99;87.80;96422.03;1823424;77;22941;-65
2021/03/15 02:30:21;;;;;;;7.12;4.62;;;;;;;6.95;87.84;96426.37;1827208;78;21139;-68
2021/03/15 02:33:29;;;;;;;7.78;4.92;;;;;;;7.00;87.48;96431.37;1827283;78;21589;-62
2021/03/15 02:36:00;;;;;;;7.30;4.20;;;;;;;7.10;87.23;96429.95;1827527;78;21127;-66
2021/03/15 02:38:38;;;;;;;6.97;4.47;;;;;;;7.15;87.00;96420.78;1827349;78;21203;-63
2021/03/15 02:41:10;;;;;;;5.78;4.17;;;;;;;7.17;86.80;96421.89;1827295;78;21180;-64
2021/03/15 02:44:01;;;;;;;6.90;4.05;;;;;;;7.15;86.87;96419.48;1827239;78;21286;-63
2021/03/15 02:46:30;;;;;;;5.92;4.67;;;;;;;7.22;86.52;96426.11;1827303;78;21368;-63
2021/03/15 02:49:03;;;;;;;8.78;5.62;;;;;;;7.31;86.20;96423.06;1827385;78;21278;-64
2021/03/15 02:51:34;;;;;;;6.55;4.40;;;;;;;7.38;85.88;96422.73;1827316;78;21212;-64
2021/03/15 02:54:04;;;;;;;7.08;4.50;;;;;;;7.39;85.48;96416.61;1827383;78;21262;-64
2021/03/15 02:56:35;;;;;;;5.95;4.80;;;;;;;7.42;85.34;96420.97;1827162;78;21711;-62
2021/03/15 02:59:05;;;;;;;9.88;4.12;;;;;;;7.40;85.13;96413.84;1827362;78;21680;-63
2021/03/15 03:01:35;;;;;;;10.08;4.65;;;;;;;7.41;85.15;96412.89;1827160;78;21108;-63
2021/03/15 03:04:05;;;;;;;5.78;4.92;;;;;;;7.43;84.90;96412.74;1797964;78;21552;-62
2021/03/15 03:06:36;;;;;;;6.62;3.72;;;;;;;7.35;85.21;96414.02;1827122;78;21180;-62
2021/03/15 03:09:08;;;;;;;4.00;3.25;;;;;;;7.32;85.20;96415.13;1827114;78;21595;-65
2021/03/15 03:14:47;;;;;;;9.58;5.95;;;;;;;7.28;85.08;96415.61;1704357;84;21195;-64
2021/03/15 03:17:16;;;;;;;8.80;5.47;;;;;;;7.25;85.39;96415.45;1704255;84;21167;-63
2021/03/15 03:19:48;;;;;;;7.03;4.67;;;;;;;7.22;85.38;96414.97;1704329;84;21143;-63
2021/03/15 03:22:18;;;;;;;9.68;5.35;;;;;;;7.25;85.31;96416.74;1704449;84;21170;-62
2021/03/15 03:24:48;;;;;;;9.38;5.47;;;;;;;7.23;85.18;96413.53;1702846;84;21145;-63
2021/03/15 03:27:17;;;;;;;8.28;4.97;;;;;;;7.26;85.06;96409.81;1704328;84;22460;-63
2021/03/15 03:29:46;;;;;;;12.03;5.58;;;;;;;7.25;85.31;96409.00;1704395;84;21159;-62
2021/03/15 03:32:16;;;;;;;9.30;5.95;;;;;;;7.18;85.97;96410.61;1678659;84;21147;-62
2021/03/15 03:34:44;;;;;;;9.68;6.28;;;;;;;7.10;86.00;96403.66;1704485;84;21194;-64
2021/03/15 03:37:12;;;;;;;8.75;5.72;;;;;;;7.08;86.03;96406.87;1704010;84;21222;-64
2021/03/15 03:39:40;;;;;;;7.12;4.75;;;;;;;7.04;86.32;96402.98;1703732;84;21196;-65
2021/03/15 03:42:30;;;;;;;8.55;5.70;;;;;;;7.02;86.40;96410.09;1704012;84;21592;-65
2021/03/15 03:44:58;;;;;;;8.75;5.55;;;;;;;6.99;86.55;96396.22;1761323;81;21166;-63
2021/03/15 03:47:26;;;;;;;8.48;5.62;;;;;;;6.95;87.39;96394.92;1761180;81;21607;-63
2021/03/15 03:49:57;;;;;;;8.28;5.30;;;;;;;6.92;87.31;96398.30;1761284;81;21700;-64
2021/03/15 03:52:49;;;;;;;10.43;5.25;;;;;;;6.93;86.95;96392.97;1761211;81;21132;-64
2021/03/15 03:55:21;;;;;;;10.03;5.37;;;;;;;6.96;86.42;96393.97;1731803;82;21170;-64
2021/03/15 03:57:52;;;;;;;8.03;5.28;;;;;;;6.98;86.27;96386.05;1731786;83;21167;-64
2021/03/15 04:00:35;;;;;;;11.33;6.22;;;;;;;6.98;86.02;96386.86;1738592;81;21560;-63
2021/03/15 04:03:18;;;;;;;10.53;5.70;;;;;;;6.99;85.91;96387.19;1738158;82;21159;-63
2021/03/15 04:05:58;;;;;;;7.30;4.87;;;;;;;6.98;86.04;96389.44;1738060;82;21577;-63
2021/03/15 04:08:50;;;;;;;8.38;5.08;;;;;;;6.95;86.17;96376.86;1738035;82;21582;-63
2021/03/15 04:11:23;;;;;;;10.55;6.58;;;;;;;6.90;86.72;96386.03;1737900;82;21324;-68
2021/03/15 04:13:55;;;;;;;11.85;6.50;;;;;;;6.85;87.06;96382.63;1738045;81;21162;-64
2021/03/15 04:16:28;;;;;;;11.35;7.08;;;;;;;6.82;87.11;96371.34;1738190;82;21674;-64
2021/03/15 04:19:00;;;;;;;8.48;5.78;;;;;;;6.79;87.21;96378.11;1738169;82;21162;-66
2021/03/15 04:21:31;;;;;;;11.12;6.95;;;;;;;6.77;87.26;96372.28;1737592;82;21329;-62
2021/03/15 04:24:02;;;;;;;10.72;5.58;;;;;;;6.77;87.41;96368.92;1707205;82;21159;-65
2021/03/15 04:26:31;;;;;;;11.95;6.42;;;;;;;6.76;87.31;96368.11;1707042;82;21210;-64
2021/03/15 04:29:00;;;;;;;8.95;5.70;;;;;;;6.76;87.14;96369.88;1738242;82;21591;-64
2021/03/15 04:31:29;;;;;;;8.85;5.65;;;;;;;6.76;87.31;96362.14;1738053;82;21615;-64
2021/03/15 04:33:59;;;;;;;10.30;6.28;;;;;;;6.74;87.78;96364.05;1738340;82;21741;-65
2021/03/15 04:36:28;;;;;;;8.33;5.00;;;;;;;6.71;88.28;96355.34;1738096;81;21750;-65
2021/03/15 04:38:57;;;;;;;11.08;6.58;;;;;;;6.71;87.79;96359.22;1737883;82;21166;-64
2021/03/15 04:41:25;;;;;;;8.03;5.17;;;;;;;6.74;87.52;96361.47;1699469;83;21175;-64
2021/03/15 04:43:54;;;;;;;23.87;13.35;;;;;;;6.74;88.14;96353.25;1737472;81;21213;-64
2021/03/15 04:46:23;;;;;;;21.82;12.00;;;;;;;6.75;87.95;96352.30;1731696;81;21620;-64
2021/03/15 04:48:51;;;;;;;14.05;8.48;;;;;;;6.77;87.84;96350.35;1753425;81;21587;-61
2021/03/15 04:51:21;;;;;;;20.37;10.78;;;;;;;6.83;88.10;96347.16;1707282;82;21604;-65
2021/03/15 04:53:49;;;;;;;10.55;5.30;;;;;;;6.83;88.11;96347.16;1738186;82;21555;-64
2021/03/15 04:56:18;;;;;;;7.50;4.53;;;;;;;6.87;88.05;96343.30;1737797;81;21162;-65
2021/03/15 04:59:11;;;;;;;6.58;4.97;;;;;;;6.88;88.41;96346.20;1738062;81;21170;-64
2021/03/15 05:01:42;;;;;;;6.92;4.62;;;;;;;6.88;88.53;96346.20;1679037;84;21703;-64
2021/03/15 05:04:12;;;;;;;8.65;5.37;;;;;;;6.89;88.75;96349.57;1679165;84;21159;-64
2021/03/15 05:06:43;;;;;;;7.08;4.75;;;;;;;6.86;88.92;96349.41;1679060;84;21170;-64
2021/03/15 05:09:13;;;;;;;8.93;4.37;;;;;;;6.88;89.49;96353.14;1679414;84;21207;-64
2021/03/15 05:11:42;;;;;;;7.30;4.35;;;;;;;6.96;89.03;96347.99;1679439;84;21167;-73
2021/03/15 05:14:12;;;;;;;7.30;4.30;;;;;;;6.99;88.83;96345.89;1678997;84;21192;-66
2021/03/15 05:16:42;;;;;;;5.37;4.25;;;;;;;7.01;88.97;96347.82;1679360;84;21193;-68
2021/03/15 05:19:33;;;;;;;6.95;3.70;;;;;;;7.01;89.32;96347.01;1679483;84;21189;-67
2021/03/15 05:22:02;;;;;;;7.62;3.50;;;;;;;7.06;89.24;96344.28;1716784;83;21148;-64
2021/03/15 05:24:32;;;;;;;5.15;3.00;;;;;;;7.09;88.96;96338.80;1718138;83;21200;-65
2021/03/15 05:27:00;;;;;;;6.47;3.90;;;;;;;7.08;89.12;96342.34;1718296;83;21172;-73
2021/03/15 05:29:31;;;;;;;5.25;3.62;;;;;;;7.11;89.23;96341.23;1718233;83;21164;-63
2021/03/15 05:31:59;;;;;;;5.87;3.77;;;;;;;7.00;89.25;96340.25;1718081;83;21205;-63
2021/03/15 05:34:30;;;;;;;5.65;3.12;;;;;;;7.06;89.70;96337.02;1718274;83;21173;-67
2021/03/15 05:37:02;;;;;;;7.65;4.33;;;;;;;7.12;89.24;96341.05;1718145;83;21200;-72
2021/03/15 05:39:30;;;;;;;4.58;3.42;;;;;;;7.04;90.11;96338.46;1718365;83;21215;-67
2021/03/15 05:42:15;;;;;;;6.25;3.83;;;;;;;7.04;90.17;96341.55;1690669;83;21183;-66
2021/03/15 05:45:28;;;;;;;4.80;3.37;;;;;;;7.04;90.24;96332.01;1709299;83;21238;-67
2021/03/15 05:48:44;;;;;;;7.05;4.25;;;;;;;7.07;90.14;96332.19;1714572;83;21177;-67
2021/03/15 05:51:32;;;;;;;5.75;3.33;;;;;;;7.04;90.10;96326.06;1715814;83;21163;-67
2021/03/15 05:54:27;;;;;;;13.95;6.92;;;;;;;7.08;89.86;96328.65;1715994;82;21320;-66
2021/03/15 05:57:34;;;;;;;5.80;3.77;;;;;;;7.09;89.85;96328.95;1715852;83;21157;-67
2021/03/15 06:00:58;;;;;;;6.55;4.28;;;;;;;7.03;90.59;96333.00;1715812;83;21320;-64
2021/03/15 06:04:02;;;;;;;5.28;3.42;;;;;;;6.98;90.79;96327.50;1653649;85;21681;-65
2021/03/15 06:06:37;;;;;;;8.53;3.55;;;;;;;7.02;90.28;96324.11;1651687;86;21211;-66
2021/03/15 06:09:07;;;;;;;4.60;2.80;;;;;;;7.04;90.63;96325.55;1653914;87;21191;-65
2021/03/15 06:11:45;;;;;;;4.85;2.25;;;;;;;7.11;90.23;96329.61;1653800;87;21681;-65
2021/03/15 06:14:13;;;;;;;6.72;3.98;;;;;;;7.19;90.03;96323.64;1647336;86;21564;-65
2021/03/15 06:16:43;;;;;;;3.90;3.10;;;;;;;7.12;89.92;96335.89;1652185;87;21702;-65
2021/03/15 06:19:13;;;;;;;5.17;4.05;;;;;;;7.14;90.40;96335.73;1652578;87;21242;-67
2021/03/15 06:21:41;;;;;;;4.97;3.55;;;;;;;7.15;90.07;96336.07;1653186;87;21193;-66
2021/03/15 06:26:38;;;;;;;6.00;3.40;;;;;;;7.08;90.94;96332.52;1779744;79;22599;-63
2021/03/15 06:29:06;;;;;;;5.35;3.72;;;;;;;7.14;90.36;96341.71;1753953;82;21160;-66
2021/03/15 06:31:37;;;;;;;4.60;3.17;;;;;;;7.15;89.90;96345.91;1753410;82;21140;-64
2021/03/15 06:34:08;;;;;;;5.45;3.87;;;;;;;7.07;89.77;96348.97;1753643;82;21160;-65
2021/03/15 06:36:36;;;;;;;4.95;3.40;;;;;;;7.04;89.46;96344.91;1723499;82;21552;-65
2021/03/15 06:39:05;;;;;;;3.92;2.65;;;;;;;7.00;90.42;96345.41;1751690;82;21168;-65
2021/03/15 06:41:34;;;;;;;6.50;3.70;;;;;;;7.03;89.83;96347.20;1751621;81;21264;-65
2021/03/15 06:44:02;;;;;;;5.97;3.40;;;;;;;6.99;89.99;96342.50;1752123;82;21169;-65
2021/03/15 06:46:31;;;;;;;6.42;3.77;;;;;;;7.03;89.87;96344.61;1753550;82;21172;-65
2021/03/15 06:48:59;;;;;;;5.83;3.92;;;;;;;7.10;89.44;96344.29;1724115;82;21188;-65
2021/03/15 06:51:27;;;;;;;5.87;3.90;;;;;;;6.94;90.92;96333.95;1754907;80;21115;-65
2021/03/15 06:53:55;;;;;;;6.12;4.08;;;;;;;7.02;90.89;96330.08;1756100;80;21167;-65
2021/03/15 06:56:24;;;;;;;6.47;3.90;;;;;;;7.07;90.42;96332.19;1732189;82;21207;-65
2021/03/15 06:58:55;;;;;;;8.65;4.12;;;;;;;7.09;90.41;96333.63;1736483;81;21618;-64
2021/03/15 07:01:28;;;;;;;5.15;3.83;;;;;;;7.09;90.34;96329.77;1738439;81;21185;-65
2021/03/15 07:04:08;;;;;;;6.17;3.42;;;;;;;7.11;90.06;96323.97;1738725;81;21241;-65
2021/03/15 07:06:39;;;;;;;7.25;5.17;;;;;;;7.10;90.60;96318.48;1738657;81;21198;-65
2021/03/15 07:09:12;;;;;;;10.20;4.72;;;;;;;7.15;91.26;96325.27;1738561;81;21169;-66
2021/03/15 07:11:40;;;;;;;7.12;4.83;;;;;;;7.19;91.47;96321.06;1719665;82;21194;-66
2021/03/15 07:14:26;;;;;;;6.35;3.40;;;;;;;7.25;90.77;96322.98;1738338;82;21209;-65
2021/03/15 07:16:59;;;;;;;5.73;4.47;;;;;;;7.28;90.54;96322.17;1738733;81;21225;-65
2021/03/15 07:19:32;;;;;;;7.33;3.45;;;;;;;7.21;91.45;96318.63;1734990;82;21541;-65
2021/03/15 07:22:06;;;;;;;4.78;3.37;;;;;;;7.29;90.58;96313.95;1692817;82;21204;-65
2021/03/15 07:24:34;;;;;;;6.55;4.05;;;;;;;7.29;90.06;96312.17;1743632;82;21207;-65
2021/03/15 07:27:03;;;;;;;8.13;3.27;;;;;;;7.30;90.18;96318.15;1752973;81;21648;-65
2021/03/15 07:29:32;;;;;;;4.25;2.90;;;;;;;7.31;90.21;96315.42;1752899;82;21278;-65
2021/03/15 07:32:01;;;;;;;6.65;3.40;;;;;;;7.33;89.74;96307.02;1752908;82;21204;-65
2021/03/15 07:34:29;;;;;;;7.12;4.25;;;;;;;7.34;89.89;96314.28;1753343;80;21156;-65
2021/03/15 07:37:00;;;;;;;6.67;3.80;;;;;;;7.34;89.80;96315.09;1753085;80;21208;-65
2021/03/15 07:39:31;;;;;;;4.37;3.37;;;;;;;7.38;89.87;96312.98;1753516;82;21172;-65
2021/03/15 07:42:02;;;;;;;7.85;5.12;;;;;;;7.49;89.61;96313.94;1753674;82;21152;-65
2021/03/15 07:44:33;;;;;;;3.02;2.75;;;;;;;7.55;89.65;96311.98;1753595;82;21188;-65
2021/03/15 07:47:07;;;;;;;4.78;2.83;;;;;;;7.71;88.99;96311.14;1753662;82;21581;-65
2021/03/15 07:49:42;;;;;;;3.95;2.67;;;;;;;7.77;88.00;96304.04;1753639;82;21125;-65
2021/03/15 07:52:13;;;;;;;5.53;3.52;;;;;;;7.90;87.40;96300.43;1725797;82;21188;-69
2021/03/15 07:55:01;;;;;;;5.28;3.10;;;;;;;8.04;86.92;96305.73;1753543;82;21153;-65
2021/03/15 07:57:32;;;;;;;3.72;2.30;;;;;;;8.13;85.99;96309.89;1673483;84;21600;-70
2021/03/15 08:00:00;;;;;;;5.00;2.85;;;;;;;8.21;85.50;96306.46;1673349;84;21191;-65
2021/03/15 08:02:34;;;;;;;3.30;2.40;;;;;;;8.18;84.87;96304.70;1673208;84;21560;-65
2021/03/15 08:05:04;;;;;;;4.90;3.47;;;;;;;8.16;85.32;96302.78;1673296;86;21222;-65
2021/03/15 08:07:32;;;;;;;4.60;2.83;;;;;;;8.19;84.88;96303.25;1673185;86;21192;-65
2021/03/15 08:10:01;;;;;;;8.20;3.20;;;;;;;8.21;84.72;96301.29;1673346;84;21192;-65
2021/03/15 08:12:36;;;;;;;4.33;2.58;;;;;;;8.28;84.58;96297.56;1672990;86;21215;-65
2021/03/15 08:15:10;;;;;;;4.47;3.58;;;;;;;8.40;84.23;96297.54;1673002;86;21321;-65
2021/03/15 08:17:45;;;;;;;3.75;3.15;;;;;;;8.13;85.43;96294.89;1673002;85;21186;-65
2021/03/15 08:20:15;;;;;;;;;;;;;;;8.33;84.91;96299.16;1675761;86;21152;-65
2021/03/15 08:22:47;;;;;;;2.77;2.58;;;;;;;8.36;84.96;96298.85;1673084;84;20144;-65
2021/03/15 08:25:17;;;;;;;2.98;1.95;;;;;;;8.36;83.97;96296.27;1673004;86;21216;-65
2021/03/15 08:27:49;;;;;;;3.42;2.75;;;;;;;8.28;84.21;96292.39;1673071;86;21227;-65
2021/03/15 08:30:46;;;;;;;6.70;4.78;;;;;;;8.23;84.13;96298.06;1673206;86;21612;-65
2021/03/15 08:33:18;;;;;;;3.85;2.65;;;;;;;8.34;83.95;96295.13;1748826;81;21221;-64
2021/03/15 08:35:49;;;;;;;4.10;2.95;;;;;;;8.29;84.28;96296.59;1748334;82;21135;-64
2021/03/15 08:38:18;;;;;;;2.62;2.00;;;;;;;8.27;83.55;96290.29;1748402;82;21210;-64
2021/03/15 08:40:50;;;;;;;3.02;2.05;;;;;;;8.24;83.46;96290.63;1748461;82;21161;-64
2021/03/15 08:43:22;;;;;;;3.87;2.72;;;;;;;8.20;83.36;96285.96;1748248;82;21192;-64
2021/03/15 08:46:09;;;;;;;2.35;1.82;;;;;;;8.07;83.72;96282.13;1748439;82;21158;-65
2021/03/15 08:48:47;;;;;;;2.58;1.70;;;;;;;8.10;84.00;96281.79;1748163;82;21138;-64
2021/03/15 08:51:38;;;;;;;2.30;2.05;;;;;;;8.04;83.99;96285.54;1748414;82;21527;-64
2021/03/15 08:54:08;;;;;;;3.20;2.72;;;;;;;8.06;84.30;96281.80;1748590;82;21566;-64
2021/03/15 08:56:44;;;;;;;4.95;2.22;;;;;;;7.83;85.36;96279.63;1748493;82;21650;-64
2021/03/15 08:59:14;;;;;;;2.90;1.92;;;;;;;8.01;84.82;96280.71;1748341;82;21178;-64
2021/03/15 09:01:51;;;;;;;3.70;2.47;;;;;;;7.96;84.31;96285.56;1748204;82;21618;-65
2021/03/15 09:04:48;;;;;;;3.90;2.90;;;;;;;7.90;84.95;96282.34;1748017;81;21206;-64
2021/03/15 09:07:43;;;;;;;4.42;2.92;;;;;;;7.79;85.28;96277.53;1747545;81;21228;-64
2021/03/15 09:10:34;;;;;;;2.62;2.10;;;;;;;7.67;85.67;96274.98;1631460;87;21667;-65
2021/03/15 09:13:30;;;;;;;3.02;1.50;;;;;;;7.66;85.94;96281.95;1643450;87;21576;-64
2021/03/15 09:16:02;;;;;;;3.65;2.17;;;;;;;7.75;85.46;96276.25;1641610;86;21187;-64
2021/03/15 09:18:50;;;;;;;3.80;2.72;;;;;;;7.71;85.87;96275.78;1674858;84;21241;-64
2021/03/15 09:21:30;;;;;;;3.50;2.75;;;;;;;7.80;85.79;96270.92;1642180;86;21592;-63
2021/03/15 09:24:03;;;;;;;2.92;1.87;;;;;;;7.77;85.48;96266.09;1674773;84;21159;-64
2021/03/15 09:26:33;;;;;;;4.12;2.22;;;;;;;7.91;84.91;96267.97;1641600;86;21164;-64
2021/03/15 09:29:05;;;;;;;3.70;2.90;;;;;;;7.95;85.00;96266.66;1674747;84;21211;-64
2021/03/15 09:31:33;;;;;;;2.60;1.85;;;;;;;8.09;84.72;96260.78;1641780;87;21203;-64
2021/03/15 09:34:24;;;;;;;6.17;2.75;;;;;;;8.26;84.12;96253.76;1648255;86;21246;-64
2021/03/15 09:36:54;;;;;;;3.55;2.30;;;;;;;8.42;83.35;96252.89;1702597;84;21623;-64
2021/03/15 09:39:25;;;;;;;4.60;2.77;;;;;;;8.60;82.44;96254.72;1668813;86;21621;-64
2021/03/15 09:41:56;;;;;;;7.70;3.20;;;;;;;8.72;81.20;96250.75;1668620;85;21189;-65
2021/03/15 09:44:31;;;;;;;4.85;2.83;;;;;;;8.89;81.31;96247.56;1668827;86;21608;-64
2021/03/15 09:47:00;;;;;;;3.90;3.35;;;;;;;8.98;80.11;96240.88;1668987;86;21171;-64
2021/03/15 09:49:43;;;;;;;5.50;3.58;;;;;;;9.06;80.27;96245.17;1669706;85;21175;-64
2021/03/15 09:55:31;;;;;;;6.28;4.62;;;;;;;8.99;80.93;96237.28;1757479;81;21139;-64
2021/03/15 09:58:09;;;;;;;6.75;3.42;;;;;;;8.88;80.96;96236.89;1673469;85;21172;-65
2021/03/15 10:00:40;;;;;;;8.23;4.03;;;;;;;8.99;80.98;96235.17;1718221;83;21156;-65
2021/03/15 10:03:26;;;;;;;5.62;3.37;;;;;;;8.92;81.56;96226.02;1718320;83;21163;-63
2021/03/15 10:05:59;;;;;;;6.15;3.25;;;;;;;8.73;81.73;96230.38;1666698;85;21215;-65
2021/03/15 10:11:44;;;;;;;6.67;4.20;;;;;;;8.81;82.41;96225.63;1728854;82;21159;-65
2021/03/15 10:14:24;;;;;;;4.58;3.72;;;;;;;8.76;82.16;96219.67;1693915;85;21170;-66
2021/03/15 10:17:04;;;;;;;4.67;2.90;;;;;;;8.62;84.07;96222.21;1611972;89;21361;-65
2021/03/15 10:19:40;;;;;;;4.87;2.92;;;;;;;8.58;82.90;96219.97;1727966;83;21183;-65
2021/03/15 10:22:12;;;;;;;5.92;3.62;;;;;;;8.61;82.51;96219.30;1668165;85;21664;-64
2021/03/15 10:24:42;;;;;;;4.40;3.00;;;;;;;8.56;82.71;96216.73;1693771;85;21214;-65
2021/03/15 10:27:23;;;;;;;7.67;3.55;;;;;;;8.56;83.50;96218.03;1670575;86;21656;-66
2021/03/15 10:29:56;;;;;;;4.78;3.15;;;;;;;8.71;82.79;96212.94;1652464;85;21178;-64
2021/03/15 10:32:30;;;;;;;4.87;3.30;;;;;;;8.69;82.23;96209.70;1684892;85;21580;-64
2021/03/15 10:35:03;;;;;;;4.25;2.90;;;;;;;8.81;82.17;96211.39;1696355;84;21247;-65
2021/03/15 10:37:37;;;;;;;5.67;3.22;;;;;;;8.89;81.81;96212.63;1695264;84;21184;-65
2021/03/15 10:40:12;;;;;;;5.45;3.15;;;;;;;8.73;82.61;96207.08;1695379;84;21184;-65
2021/03/15 10:42:40;;;;;;;3.87;3.02;;;;;;;8.88;82.30;96203.23;1696514;84;21198;-65
2021/03/15 10:45:30;;;;;;;7.20;5.30;;;;;;;8.83;81.48;96201.17;1696411;84;21600;-65
2021/03/15 10:48:06;;;;;;;10.15;5.20;;;;;;;8.79;82.46;96197.83;1696412;84;21230;-65
2021/03/15 10:50:42;;;;;;;5.15;3.25;;;;;;;8.82;81.93;96198.77;1696704;84;21616;-65
2021/03/15 10:53:22;;;;;;;6.53;5.08;;;;;;;8.79;81.44;96192.66;1695750;84;21213;-64
2021/03/15 10:55:52;;;;;;;5.33;3.83;;;;;;;8.70;82.55;96194.50;1696385;84;21221;-65
2021/03/15 10:58:24;;;;;;;4.28;3.58;;;;;;;8.71;82.53;96194.82;1696240;84;21546;-64
2021/03/15 11:01:03;;;;;;;5.53;3.10;;;;;;;8.74;82.48;96189.78;1693990;84;21200;-64
2021/03/15 11:03:32;;;;;;;5.85;3.37;;;;;;;8.74;82.22;96185.89;1696445;84;21232;-64
2021/03/15 11:06:10;;;;;;;3.45;2.83;;;;;;;8.63;83.53;96187.12;1696195;84;21649;-65
2021/03/15 11:08:38;;;;;;;3.50;2.30;;;;;;;8.72;82.20;96179.59;1696210;84;21625;-65
2021/03/15 11:11:22;;;;;;;2.72;1.77;;;;;;;8.79;82.09;96181.01;1696695;84;21173;-64
2021/03/15 11:13:54;;;;;;;4.65;2.85;;;;;;;8.81;81.78;96175.16;1696874;84;21188;-64
2021/03/15 11:16:29;;;;;;;3.83;3.33;;;;;;;8.81;81.42;96173.38;1693767;84;21181;-64
2021/03/15 11:19:09;;;;;;;4.35;2.85;;;;;;;8.72;80.75;96169.23;1696476;84;21236;-64
2021/03/15 11:21:43;;;;;;;4.35;2.33;;;;;;;8.65;81.73;96161.86;1696566;84;21224;-69
2021/03/15 11:24:29;;;;;;;4.65;2.05;;;;;;;8.67;82.81;96161.21;1696556;84;21672;-65
2021/03/15 11:27:35;;;;;;;2.05;1.40;;;;;;;8.76;81.95;96160.63;1696518;84;21539;-64
2021/03/15 11:30:09;;;;;;;3.35;2.72;;;;;;;8.83;81.50;96157.16;1696423;84;21180;-64
2021/03/15 11:32:47;;;;;;;4.22;2.98;;;;;;;8.89;80.66;96144.02;1823800;77;23029;-65
2021/03/15 11:35:22;;;;;;;3.55;1.80;;;;;;;8.81;81.65;96143.61;1826244;78;21139;-64
2021/03/15 11:37:57;;;;;;;2.67;2.10;;;;;;;8.96;81.40;96144.92;1825021;78;21159;-64
2021/03/15 11:40:41;;;;;;;4.85;1.57;;;;;;;8.98;81.26;96144.27;1797410;78;21212;-64
2021/03/15 11:43:13;;;;;;;2.87;1.70;;;;;;;8.94;80.15;96136.55;1827588;78;21152;-65
2021/03/15 11:45:43;;;;;;;2.40;1.52;;;;;;;8.98;80.99;96137.31;1827125;78;21317;-65
2021/03/15 11:48:12;;;;;;;2.87;1.60;;;;;;;9.05;80.46;96129.63;1827434;78;21135;-65
2021/03/15 11:50:46;;;;;;;1.57;1.40;;;;;;;9.02;79.51;96130.80;1826273;78;21230;-65
2021/03/15 11:53:15;;;;;;;2.17;1.42;;;;;;;9.03;79.41;96115.56;1826374;78;21124;-65
2021/03/15 11:55:46;;;;;;;2.72;1.80;;;;;;;9.03;80.01;96122.52;1827196;78;21223;-65
2021/03/15 11:58:16;;;;;;;7.42;4.12;;;;;;;9.00;79.66;96114.63;1827192;78;21198;-66
2021/03/15 12:00:44;;;;;;;3.58;1.80;;;;;;;8.97;79.77;96116.77;1827516;78;21281;-64
2021/03/15 12:03:18;;;;;;;2.60;1.80;;;;;;;9.01;79.75;96110.25;1818341;78;21397;-64
2021/03/15 12:06:06;;;;;;;2.12;1.55;;;;;;;8.93;79.41;96110.33;1827626;78;21262;-64
2021/03/15 12:08:39;;;;;;;3.25;2.35;;;;;;;9.06;79.58;96106.13;1824134;78;21128;-65
2021/03/15 12:11:10;;;;;;;2.20;1.47;;;;;;;9.10;79.61;96106.61;1827394;78;21726;-64
2021/03/15 12:13:38;;;;;;;6.90;5.15;;;;;;;9.17;79.31;96107.98;1827558;78;21183;-64
2021/03/15 12:16:07;;;;;;;4.35;1.95;;;;;;;9.18;79.27;96098.75;1827451;78;21611;-65
2021/03/15 12:18:35;;;;;;;3.17;2.20;;;;;;;9.25;78.92;96100.13;1805533;78;21185;-65
2021/03/15 12:21:05;;;;;;;2.33;2.00;;;;;;;9.21;78.73;96097.09;1796921;80;21162;-65
2021/03/15 12:23:34;;;;;;;3.35;2.20;;;;;;;9.21;79.54;96094.50;1766371;80;21171;-65
2021/03/15 12:26:04;;;;;;;4.45;2.87;;;;;;;9.01;80.32;96092.94;1773431;81;21159;-64
2021/03/15 12:28:37;;;;;;;5.00;2.77;;;;;;;8.98;80.27;96095.89;1741951;81;21604;-65
2021/03/15 12:31:08;;;;;;;3.95;2.62;;;;;;;9.03;80.35;96088.38;1739186;82;21676;-64